Aviation Digital Data Service (ADDS)

Output produced by METARs form (0000 UTC 26 May 2017)
found at http://aviationweather.gov/adds/metars/
 
KJAX 252321Z 2600/2624 26009KT P6SM SKC 
     FM260200 26003KT P6SM SKC 
     FM261400 25006KT P6SM FEW250 
     FM262100 14009KT P6SM FEW250